Time;durP1;ratioP1;P1;durP2;ratioP2;P2;SDS_P1;SDS_P2;PMS_P1;PMS_P2;Temp;Humidity;BMP_temperature;BMP_pressure;BME280_temperature;BME280_humidity;BME280_pressure;Samples;Min_cycle;Max_cycle;Signal;HPM_P1;HPM_P2
2022/12/28 00:00:27;;;;;;;20.67;12.33;;;-1.80;99.90;;;;;;5056252;28;20678;-73
2022/12/28 00:02:56;;;;;;;23.90;14.33;;;-1.70;99.90;;;;;;5056548;28;20251;-73
2022/12/28 00:05:23;;;;;;;20.70;13.77;;;-1.60;99.90;;;;;;5056423;28;20534;-73
2022/12/28 00:07:50;;;;;;;25.87;13.43;;;-1.60;99.90;;;;;;5056432;28;20204;-74
2022/12/28 00:10:17;;;;;;;21.17;13.97;;;-1.70;99.90;;;;;;5056114;28;20681;-74
2022/12/28 00:12:44;;;;;;;24.17;13.53;;;-1.70;99.90;;;;;;5057096;28;20198;-75
2022/12/28 00:15:11;;;;;;;22.07;12.70;;;-1.70;99.90;;;;;;5056775;28;20198;-74
2022/12/28 00:17:37;;;;;;;21.47;12.50;;;-1.70;99.90;;;;;;5056884;28;20202;-74
2022/12/28 00:20:05;;;;;;;26.20;12.80;;;-1.70;99.90;;;;;;5056688;28;20255;-74
2022/12/28 00:22:32;;;;;;;18.00;12.47;;;-1.60;99.90;;;;;;5056598;28;20770;-74
2022/12/28 00:24:59;;;;;;;22.20;12.57;;;-1.60;99.90;;;;;;5059069;28;20198;-75
2022/12/28 00:27:26;;;;;;;20.20;13.10;;;-1.70;99.90;;;;;;5056829;28;20715;-74
2022/12/28 00:29:53;;;;;;;20.30;12.10;;;-1.60;99.90;;;;;;5056653;28;20202;-75
2022/12/28 00:32:20;;;;;;;20.87;12.77;;;-1.70;99.90;;;;;;5058347;28;20661;-76
2022/12/28 00:34:47;;;;;;;24.13;13.47;;;-1.60;99.90;;;;;;5057225;28;20687;-75
2022/12/28 00:37:13;;;;;;;22.47;12.67;;;-1.60;99.90;;;;;;5056117;28;20248;-74
2022/12/28 00:39:41;;;;;;;20.07;12.70;;;-1.60;99.90;;;;;;5055827;28;20654;-74
2022/12/28 00:42:10;;;;;;;23.60;12.43;;;-1.70;99.90;;;;;;5056698;28;20270;-74
2022/12/28 00:44:37;;;;;;;23.70;12.57;;;-1.60;99.90;;;;;;5060602;28;20198;-74
2022/12/28 00:47:03;;;;;;;20.23;12.90;;;-1.60;99.90;;;;;;5062093;28;20264;-74
2022/12/28 00:49:30;;;;;;;23.83;12.80;;;-1.50;99.90;;;;;;5061529;28;20553;-74
2022/12/28 00:51:56;;;;;;;19.37;12.80;;;-1.50;99.90;;;;;;5056741;28;20229;-75
2022/12/28 00:54:23;;;;;;;17.60;11.67;;;-1.50;99.90;;;;;;5055828;28;20244;-74
2022/12/28 00:56:49;;;;;;;18.63;12.10;;;-1.50;99.90;;;;;;5062779;28;20212;-74
2022/12/28 00:59:17;;;;;;;19.23;12.50;;;-1.60;99.90;;;;;;5055594;28;20198;-74
2022/12/28 01:01:44;;;;;;;19.60;12.77;;;-1.50;99.90;;;;;;5055531;28;20201;-74
2022/12/28 01:04:11;;;;;;;21.70;12.53;;;-1.50;99.90;;;;;;5055532;28;20527;-74
2022/12/28 01:06:38;;;;;;;20.90;12.10;;;-1.30;99.90;;;;;;5055249;28;20206;-74
2022/12/28 01:09:05;;;;;;;17.47;11.67;;;-1.40;99.90;;;;;;5054948;28;20252;-74
2022/12/28 01:11:32;;;;;;;19.30;11.73;;;-1.50;99.90;;;;;;5055101;28;20279;-75
2022/12/28 01:14:01;;;;;;;15.40;11.07;;;-1.40;99.90;;;;;;5055165;28;20202;-74
2022/12/28 01:16:31;;;;;;;19.77;12.30;;;-1.40;99.90;;;;;;5055133;28;20289;-75
2022/12/28 01:18:59;;;;;;;20.13;12.40;;;-1.40;99.90;;;;;;5055224;28;20252;-74
2022/12/28 01:21:29;;;;;;;15.57;11.23;;;-1.40;99.90;;;;;;5055025;28;20607;-74
2022/12/28 01:23:58;;;;;;;18.67;12.10;;;-1.40;99.90;;;;;;5054852;28;20225;-74
2022/12/28 01:26:25;;;;;;;19.03;12.67;;;-1.30;99.90;;;;;;5054854;28;20244;-74
2022/12/28 01:28:52;;;;;;;21.30;12.03;;;-1.30;99.90;;;;;;5055028;28;20251;-74
2022/12/28 01:31:19;;;;;;;24.17;13.57;;;-1.20;99.90;;;;;;5054761;28;20632;-74
2022/12/28 01:33:48;;;;;;;20.10;12.70;;;-1.10;99.90;;;;;;5072804;28;20534;-74
2022/12/28 01:36:16;;;;;;;17.87;12.00;;;-1.10;99.90;;;;;;5074912;28;20713;-74
2022/12/28 01:38:44;;;;;;;20.50;12.73;;;-1.00;99.90;;;;;;5074779;28;20197;-74
2022/12/28 01:41:13;;;;;;;24.00;14.63;;;-1.10;99.90;;;;;;5074600;28;20204;-74
2022/12/28 01:43:42;;;;;;;23.17;13.63;;;-1.00;99.90;;;;;;5075503;28;20201;-74
2022/12/28 01:46:10;;;;;;;24.97;13.87;;;-0.90;99.90;;;;;;5075103;28;20197;-75
2022/12/28 01:48:43;;;;;;;24.73;14.87;;;-0.90;99.90;;;;;;5074900;28;20247;-74
2022/12/28 01:51:11;;;;;;;25.07;14.33;;;-0.90;99.90;;;;;;5075473;28;20246;-74
2022/12/28 01:53:38;;;;;;;21.60;13.60;;;-0.90;99.90;;;;;;5075240;28;20247;-74
2022/12/28 01:56:05;;;;;;;23.03;13.67;;;-1.00;99.90;;;;;;5074814;28;20200;-74
2022/12/28 01:58:33;;;;;;;18.33;12.27;;;-1.10;99.90;;;;;;5074316;28;20652;-75
2022/12/28 02:01:00;;;;;;;20.90;13.70;;;-1.10;99.90;;;;;;5075567;28;20205;-74
2022/12/28 02:03:30;;;;;;;18.93;13.13;;;-1.10;99.90;;;;;;5074683;28;20668;-75
2022/12/28 02:06:00;;;;;;;19.03;12.67;;;-1.00;99.90;;;;;;5074782;28;20594;-74
2022/12/28 02:08:32;;;;;;;18.47;12.37;;;-1.00;99.90;;;;;;5074812;28;20223;-74
2022/12/28 02:11:00;;;;;;;20.90;12.17;;;-1.00;99.90;;;;;;5075307;28;20243;-74
2022/12/28 02:13:26;;;;;;;22.67;13.10;;;-1.00;99.90;;;;;;5075424;28;20219;-74
2022/12/28 02:15:53;;;;;;;20.67;12.93;;;-1.10;99.90;;;;;;5075932;28;20250;-75
2022/12/28 02:18:21;;;;;;;23.77;13.47;;;-1.10;99.90;;;;;;5075473;28;20250;-75
2022/12/28 02:21:16;;;;;;;20.07;12.97;;;-1.10;99.90;;;;;;5074945;28;20197;-74
2022/12/28 02:24:10;;;;;;;25.40;14.53;;;-1.10;99.90;;;;;;5075126;28;20229;-75
2022/12/28 02:26:54;;;;;;;28.67;15.40;;;-1.00;99.90;;;;;;5061499;28;20200;-74
2022/12/28 02:29:48;;;;;;;26.33;15.00;;;-1.00;99.90;;;;;;5074597;28;20233;-74
2022/12/28 02:32:40;;;;;;;20.87;14.10;;;-1.00;99.90;;;;;;5074339;28;20220;-74
2022/12/28 02:35:13;;;;;;;22.07;13.80;;;-0.90;99.90;;;;;;5074755;28;20255;-74
2022/12/28 02:37:45;;;;;;;22.57;14.50;;;-0.80;99.90;;;;;;5074622;28;20258;-74
2022/12/28 02:40:16;;;;;;;26.43;15.50;;;-0.80;99.90;;;;;;5074216;28;20262;-74
2022/12/28 02:42:44;;;;;;;24.17;15.37;;;-0.70;99.90;;;;;;5074373;28;20579;-74
2022/12/28 02:51:03;;;;;;;26.80;15.47;;;-0.50;99.90;;;;;;5112115;28;20220;-75
2022/12/28 02:53:43;;;;;;;25.73;15.17;;;-0.40;99.90;;;;;;5111539;28;20180;-74
2022/12/28 02:56:22;;;;;;;24.17;15.57;;;-0.30;99.90;;;;;;5111546;28;20696;-74
2022/12/28 02:59:25;;;;;;;23.37;15.80;;;-0.30;99.90;;;;;;5111677;28;20196;-75
2022/12/28 03:02:16;;;;;;;26.23;16.27;;;-0.30;99.90;;;;;;5074933;28;20196;-75
2022/12/28 03:05:00;;;;;;;27.13;17.93;;;-0.30;99.90;;;;;;5111357;28;20256;-74
2022/12/28 03:10:21;;;;;;;29.10;17.10;;;-0.10;99.90;;;;;;5111307;28;20195;-75
2022/12/28 03:12:56;;;;;;;27.53;17.70;;;-0.10;99.90;;;;;;5111676;28;20198;-74
2022/12/28 03:15:33;;;;;;;28.30;17.83;;;-0.10;99.90;;;;;;5111405;28;20199;-75
2022/12/28 03:32:06;;;;;;;30.33;20.03;;;0.50;99.90;;;;;;5067524;28;20243;-75
2022/12/28 03:34:33;;;;;;;32.07;19.70;;;0.50;99.90;;;;;;5067420;28;20219;-75
2022/12/28 03:37:11;;;;;;;30.03;19.30;;;0.50;99.90;;;;;;5069794;28;20202;-74
2022/12/28 03:39:42;;;;;;;31.43;20.07;;;0.60;99.90;;;;;;5110403;28;20204;-75
2022/12/28 03:45:06;;;;;;;31.00;19.60;;;0.70;99.90;;;;;;5110216;28;20252;-75
2022/12/28 03:47:34;;;;;;;27.83;19.17;;;0.70;99.90;;;;;;5109935;28;20322;-75
2022/12/28 03:50:01;;;;;;;33.50;20.93;;;0.60;99.90;;;;;;5110206;28;20597;-75
2022/12/28 03:52:29;;;;;;;30.27;19.77;;;0.60;99.90;;;;;;5110221;28;20197;-75
2022/12/28 03:54:56;;;;;;;30.07;19.77;;;0.60;99.90;;;;;;5109982;28;20196;-75
2022/12/28 03:57:23;;;;;;;38.60;21.33;;;0.60;99.90;;;;;;5107963;28;20709;-75
2022/12/28 03:59:49;;;;;;;29.23;20.03;;;0.50;99.90;;;;;;5096190;28;20197;-74
2022/12/28 04:02:16;;;;;;;34.00;20.70;;;0.50;99.90;;;;;;5096812;28;20201;-75
2022/12/28 04:04:42;;;;;;;31.33;20.90;;;0.50;99.90;;;;;;5096374;28;20197;-75
2022/12/28 04:07:09;;;;;;;28.87;19.40;;;0.50;99.90;;;;;;5096269;28;20630;-75
2022/12/28 04:09:37;;;;;;;32.90;20.20;;;0.70;99.90;;;;;;5096232;28;20200;-75
2022/12/28 04:12:04;;;;;;;28.93;19.33;;;0.80;99.90;;;;;;5096130;28;20652;-75
2022/12/28 04:14:31;;;;;;;32.00;21.23;;;0.90;99.90;;;;;;5095958;28;20196;-75
2022/12/28 04:16:57;;;;;;;29.53;19.97;;;1.00;99.90;;;;;;5095957;28;20196;-75
2022/12/28 04:19:24;;;;;;;31.77;19.90;;;1.00;99.90;;;;;;5096137;28;20249;-75
2022/12/28 04:21:50;;;;;;;28.23;18.70;;;1.00;99.90;;;;;;5096221;28;20192;-75
2022/12/28 04:24:17;;;;;;;28.60;19.93;;;1.00;99.90;;;;;;5097349;28;20249;-75
2022/12/28 04:26:45;;;;;;;28.60;18.63;;;1.00;99.90;;;;;;5100132;28;20223;-75
2022/12/28 04:29:12;;;;;;;29.30;18.43;;;1.10;99.90;;;;;;5099752;28;20200;-74
2022/12/28 04:31:38;;;;;;;27.30;18.13;;;1.20;99.90;;;;;;5098689;28;20197;-75
2022/12/28 04:34:05;;;;;;;27.43;18.30;;;1.20;99.90;;;;;;5098941;28;20712;-75
2022/12/28 04:36:32;;;;;;;27.27;17.10;;;1.30;99.90;;;;;;5099348;28;20200;-75
2022/12/28 04:38:59;;;;;;;24.27;16.53;;;1.30;99.90;;;;;;5098995;28;20223;-75
2022/12/28 04:41:27;;;;;;;29.53;17.97;;;1.40;99.90;;;;;;5099315;28;20246;-75
2022/12/28 04:43:55;;;;;;;25.03;16.77;;;1.40;99.90;;;;;;5100888;28;20205;-75
2022/12/28 04:46:22;;;;;;;25.57;17.00;;;1.40;99.90;;;;;;5098838;28;20707;-75
2022/12/28 04:48:49;;;;;;;25.40;16.30;;;1.50;99.90;;;;;;5099905;28;20200;-75
2022/12/28 04:51:18;;;;;;;25.70;16.57;;;1.50;99.90;;;;;;5099040;28;20196;-75
2022/12/28 04:53:45;;;;;;;27.13;15.57;;;1.50;99.90;;;;;;5098731;28;20222;-75
2022/12/28 04:56:12;;;;;;;21.57;15.00;;;1.50;99.90;;;;;;5098411;28;20200;-75
2022/12/28 04:58:39;;;;;;;20.40;14.53;;;1.60;99.90;;;;;;5097704;28;20197;-75
2022/12/28 05:01:10;;;;;;;23.30;14.80;;;1.50;99.90;;;;;;5097884;28;20273;-75
2022/12/28 05:03:38;;;;;;;21.47;14.63;;;1.60;99.90;;;;;;5097940;28;20250;-75
2022/12/28 05:06:08;;;;;;;19.37;14.47;;;1.60;99.90;;;;;;5097089;28;20197;-75
2022/12/28 05:08:36;;;;;;;21.73;14.43;;;1.50;99.90;;;;;;5096562;28;20233;-75
2022/12/28 05:11:04;;;;;;;21.30;14.03;;;1.60;99.90;;;;;;5095959;28;20249;-75
2022/12/28 05:13:31;;;;;;;23.10;13.90;;;1.70;99.90;;;;;;5096769;28;20201;-75
2022/12/28 05:16:01;;;;;;;23.60;15.47;;;1.60;99.90;;;;;;5096564;28;20196;-75
2022/12/28 05:18:29;;;;;;;20.80;13.93;;;1.60;99.90;;;;;;5096181;28;20246;-75
2022/12/28 05:21:00;;;;;;;23.30;15.27;;;1.60;99.90;;;;;;5095920;28;20242;-75
2022/12/28 05:23:28;;;;;;;20.10;14.53;;;1.60;99.90;;;;;;5095683;28;20208;-75
2022/12/28 05:25:55;;;;;;;23.93;14.57;;;1.60;99.90;;;;;;5095557;28;20200;-75
2022/12/28 05:28:21;;;;;;;21.27;14.80;;;1.50;99.90;;;;;;5095961;28;20224;-75
2022/12/28 05:30:48;;;;;;;20.27;14.13;;;1.50;99.90;;;;;;5096096;28;20610;-75
2022/12/28 05:33:15;;;;;;;20.80;14.60;;;1.40;99.90;;;;;;5096069;28;20196;-75
2022/12/28 05:35:43;;;;;;;21.13;14.37;;;1.40;99.90;;;;;;5095766;28;20541;-75
2022/12/28 05:38:09;;;;;;;21.17;16.30;;;1.40;99.90;;;;;;5095432;28;20201;-75
2022/12/28 05:40:36;;;;;;;20.80;15.37;;;1.40;99.90;;;;;;5095168;28;20564;-75
2022/12/28 05:43:02;;;;;;;19.90;14.73;;;1.40;99.90;;;;;;5094517;28;20193;-74
2022/12/28 05:45:29;;;;;;;24.57;16.17;;;1.40;99.90;;;;;;5094588;28;20248;-75
2022/12/28 05:47:55;;;;;;;22.73;15.37;;;1.40;99.90;;;;;;5094294;28;20289;-75
2022/12/28 05:50:22;;;;;;;20.93;14.33;;;1.40;99.90;;;;;;5094231;28;20192;-74
2022/12/28 05:52:50;;;;;;;22.13;15.20;;;1.40;99.90;;;;;;5095915;28;20201;-74
2022/12/28 05:55:17;;;;;;;21.53;15.33;;;1.50;99.90;;;;;;5099958;28;20640;-74
2022/12/28 05:57:43;;;;;;;22.93;14.93;;;1.50;99.90;;;;;;5102609;28;20195;-75
2022/12/28 06:00:11;;;;;;;20.73;14.47;;;1.50;99.90;;;;;;5104019;28;20249;-74
2022/12/28 06:02:37;;;;;;;21.47;14.60;;;1.50;99.90;;;;;;5094934;28;20200;-74
2022/12/28 06:05:05;;;;;;;20.40;15.27;;;1.60;99.90;;;;;;5094071;28;20336;-75
2022/12/28 06:07:31;;;;;;;20.83;14.90;;;1.60;99.90;;;;;;5093907;28;20764;-75
2022/12/28 06:09:59;;;;;;;21.00;14.23;;;1.60;99.90;;;;;;5093965;28;20200;-74
2022/12/28 06:12:26;;;;;;;18.50;13.80;;;1.60;99.90;;;;;;5093979;28;20200;-74
2022/12/28 06:14:52;;;;;;;20.87;14.87;;;1.60;99.90;;;;;;5093977;28;20199;-75
2022/12/28 06:17:19;;;;;;;23.23;15.47;;;1.60;99.90;;;;;;5093630;28;20197;-74
2022/12/28 06:19:45;;;;;;;21.97;15.00;;;1.60;99.90;;;;;;5093678;28;20713;-75
2022/12/28 06:22:12;;;;;;;20.73;14.60;;;1.60;99.90;;;;;;5093533;28;20212;-75
2022/12/28 06:24:38;;;;;;;23.17;14.90;;;1.70;99.90;;;;;;5093706;28;20204;-74
2022/12/28 06:27:06;;;;;;;21.07;15.10;;;1.70;99.90;;;;;;5093620;28;20234;-75
2022/12/28 06:29:33;;;;;;;22.00;14.80;;;1.70;99.90;;;;;;5093532;28;20626;-75
2022/12/28 06:32:00;;;;;;;20.43;14.10;;;1.70;99.90;;;;;;5093577;28;20196;-74
2022/12/28 06:34:27;;;;;;;20.73;14.63;;;1.70;99.90;;;;;;5093500;28;20651;-74
2022/12/28 06:36:55;;;;;;;20.60;14.83;;;1.70;99.90;;;;;;5094075;28;20262;-74
2022/12/28 06:39:22;;;;;;;18.13;13.67;;;1.70;99.90;;;;;;5093308;28;20287;-74
2022/12/28 06:41:48;;;;;;;20.10;14.80;;;1.80;99.90;;;;;;5093410;28;20564;-74
2022/12/28 06:44:16;;;;;;;18.83;13.67;;;1.80;99.90;;;;;;5093422;28;20193;-74
2022/12/28 06:46:43;;;;;;;19.27;14.23;;;1.80;99.90;;;;;;5093131;28;20232;-74
2022/12/28 06:49:09;;;;;;;19.47;14.07;;;1.80;99.90;;;;;;5093402;28;20305;-74
2022/12/28 06:51:40;;;;;;;21.80;14.37;;;1.80;99.90;;;;;;5093646;28;20651;-74
2022/12/28 06:54:07;;;;;;;21.27;13.80;;;1.80;99.90;;;;;;5094355;28;20224;-74
2022/12/28 06:56:36;;;;;;;20.50;14.10;;;1.80;99.90;;;;;;5095763;28;20606;-74
2022/12/28 06:59:03;;;;;;;20.67;13.90;;;1.80;99.90;;;;;;5095572;28;20204;-74
2022/12/28 07:01:33;;;;;;;19.57;13.43;;;1.80;99.90;;;;;;5093747;28;20200;-74
2022/12/28 07:04:00;;;;;;;22.07;14.53;;;1.80;99.90;;;;;;5094178;28;20245;-74
2022/12/28 07:06:29;;;;;;;20.87;13.87;;;1.80;99.90;;;;;;5094591;28;20652;-74
2022/12/28 07:08:59;;;;;;;23.57;14.33;;;1.80;99.90;;;;;;5094990;28;20625;-74
2022/12/28 07:11:26;;;;;;;20.23;13.57;;;1.90;99.90;;;;;;5095197;28;20200;-74
2022/12/28 07:13:53;;;;;;;20.23;14.30;;;1.90;99.90;;;;;;5096077;28;20240;-74
2022/12/28 07:16:21;;;;;;;26.23;15.50;;;1.90;99.90;;;;;;5095916;28;20250;-74
2022/12/28 07:18:49;;;;;;;20.70;14.63;;;1.90;99.90;;;;;;5096364;28;20548;-74
2022/12/28 07:21:19;;;;;;;22.47;14.67;;;2.00;99.90;;;;;;5095908;28;20196;-74
2022/12/28 07:23:46;;;;;;;19.83;14.33;;;2.00;99.90;;;;;;5095053;28;20660;-74
2022/12/28 07:26:14;;;;;;;20.20;14.13;;;2.10;99.90;;;;;;5093274;28;20258;-75
2022/12/28 07:28:42;;;;;;;19.67;13.53;;;2.10;99.90;;;;;;5095639;28;20274;-77
2022/12/28 07:31:11;;;;;;;20.73;13.57;;;2.10;99.90;;;;;;5096113;28;20197;-75
2022/12/28 07:33:38;;;;;;;19.60;13.60;;;2.10;99.90;;;;;;5097382;28;20713;-75
2022/12/28 07:36:08;;;;;;;18.17;13.47;;;2.10;99.90;;;;;;5098457;28;20200;-75
2022/12/28 07:38:35;;;;;;;18.93;12.97;;;2.10;99.90;;;;;;5099037;28;20201;-75
2022/12/28 07:41:02;;;;;;;16.60;12.97;;;2.30;99.90;;;;;;5099256;28;20200;-75
2022/12/28 07:43:30;;;;;;;16.63;12.60;;;2.30;99.90;;;;;;5098467;28;20253;-79
2022/12/28 07:46:00;;;;;;;17.87;12.97;;;2.50;99.90;;;;;;5098961;28;20196;-75
2022/12/28 07:48:28;;;;;;;18.27;12.93;;;2.60;99.90;;;;;;5098604;28;20224;-75
2022/12/28 07:50:55;;;;;;;21.03;12.43;;;2.60;99.90;;;;;;5096593;28;20200;-75
2022/12/28 07:53:23;;;;;;;16.90;12.03;;;2.70;99.90;;;;;;5096520;28;20196;-75
2022/12/28 07:55:55;;;;;;;18.50;12.13;;;2.80;99.90;;;;;;5096756;28;20201;-75
2022/12/28 07:58:22;;;;;;;18.80;12.47;;;2.80;99.90;;;;;;5096853;28;20237;-75
2022/12/28 08:00:48;;;;;;;16.27;11.17;;;2.80;99.90;;;;;;5096777;28;20261;-75
2022/12/28 08:03:15;;;;;;;16.30;11.77;;;2.90;99.90;;;;;;5096426;28;20200;-75
2022/12/28 08:05:42;;;;;;;16.63;11.73;;;2.90;99.90;;;;;;5096512;28;20201;-75
2022/12/28 08:08:08;;;;;;;18.00;11.93;;;3.00;99.90;;;;;;5096724;28;20224;-75
2022/12/28 08:10:36;;;;;;;15.63;11.57;;;3.00;99.90;;;;;;5096859;28;20196;-75
2022/12/28 08:13:03;;;;;;;16.53;11.87;;;3.10;99.90;;;;;;5096345;28;20201;-75
2022/12/28 08:15:30;;;;;;;15.57;11.27;;;3.10;99.90;;;;;;5096402;28;20201;-75
2022/12/28 08:17:57;;;;;;;14.90;11.13;;;3.10;99.90;;;;;;5096251;28;20660;-75
2022/12/28 08:20:23;;;;;;;14.73;10.60;;;3.10;99.90;;;;;;5096195;28;20196;-75
2022/12/28 08:22:50;;;;;;;15.37;11.00;;;3.20;99.90;;;;;;5096467;28;20197;-75
2022/12/28 08:25:17;;;;;;;13.50;10.40;;;3.20;99.90;;;;;;5096222;28;20201;-74
2022/12/28 08:27:44;;;;;;;14.67;11.27;;;3.30;99.90;;;;;;5096128;28;20213;-76
2022/12/28 08:30:12;;;;;;;15.50;10.60;;;3.30;99.90;;;;;;5095804;28;20552;-75
2022/12/28 08:32:38;;;;;;;14.87;11.07;;;3.30;99.90;;;;;;5095864;28;20201;-74
2022/12/28 08:35:07;;;;;;;15.43;10.63;;;3.40;99.90;;;;;;5095816;28;20246;-75
2022/12/28 08:37:33;;;;;;;15.63;10.83;;;3.40;99.90;;;;;;5095829;28;20202;-75
2022/12/28 08:40:00;;;;;;;12.03;9.23;;;3.50;99.90;;;;;;5095839;28;20712;-75
2022/12/28 08:42:26;;;;;;;13.80;10.27;;;3.60;99.90;;;;;;5095742;28;20199;-75
2022/12/28 08:44:54;;;;;;;14.03;9.90;;;3.60;99.90;;;;;;5095501;28;20256;-76
2022/12/28 08:47:21;;;;;;;13.80;9.93;;;3.60;99.90;;;;;;5095822;28;20256;-75
2022/12/28 08:49:47;;;;;;;14.40;9.93;;;3.70;99.90;;;;;;5095799;28;20277;-75
2022/12/28 08:52:14;;;;;;;13.17;9.87;;;3.70;99.90;;;;;;5096229;28;20727;-74
2022/12/28 08:54:40;;;;;;;14.10;10.20;;;3.80;99.90;;;;;;5095329;28;20556;-75
2022/12/28 08:57:07;;;;;;;13.20;10.00;;;3.80;99.90;;;;;;5095251;28;20252;-75
2022/12/28 08:59:33;;;;;;;13.27;9.70;;;3.90;99.90;;;;;;5095490;28;20200;-75
2022/12/28 09:02:01;;;;;;;12.37;9.60;;;3.90;99.90;;;;;;5095690;28;20200;-75
2022/12/28 09:04:28;;;;;;;12.27;9.10;;;4.00;99.90;;;;;;5095398;28;20529;-75
2022/12/28 09:06:55;;;;;;;16.70;10.33;;;4.00;99.90;;;;;;5096295;28;20199;-77
2022/12/28 09:09:21;;;;;;;12.77;9.63;;;4.00;99.90;;;;;;5094761;28;20271;-77
2022/12/28 09:11:48;;;;;;;12.77;9.30;;;4.10;99.90;;;;;;5094466;28;20253;-77
2022/12/28 09:14:15;;;;;;;12.10;9.27;;;4.20;99.90;;;;;;5094173;28;20222;-76
2022/12/28 09:16:42;;;;;;;12.57;9.33;;;4.20;99.90;;;;;;5094089;28;20207;-81
2022/12/28 09:19:14;;;;;;;14.17;9.97;;;4.20;99.90;;;;;;5094208;28;20248;-77
2022/12/28 09:21:40;;;;;;;14.40;9.57;;;4.30;99.90;;;;;;5094268;28;20198;-77
2022/12/28 09:24:07;;;;;;;14.30;9.60;;;4.30;99.90;;;;;;5093994;28;20241;-77
2022/12/28 09:26:36;;;;;;;15.10;9.40;;;4.30;99.90;;;;;;5093811;28;20659;-77
2022/12/28 09:29:05;;;;;;;13.00;10.27;;;4.40;99.90;;;;;;5093736;28;20219;-76
2022/12/28 09:31:35;;;;;;;13.47;9.70;;;4.40;99.90;;;;;;5093961;28;20602;-77
2022/12/28 09:34:02;;;;;;;11.40;9.13;;;4.50;99.90;;;;;;5093822;28;20579;-74
2022/12/28 09:36:31;;;;;;;11.83;9.63;;;4.50;99.90;;;;;;5093757;28;20304;-75
2022/12/28 09:38:59;;;;;;;12.60;9.93;;;4.60;99.90;;;;;;5093594;28;20205;-75
2022/12/28 09:41:29;;;;;;;12.60;9.97;;;4.70;99.90;;;;;;5093565;28;20208;-75
2022/12/28 09:44:08;;;;;;;12.00;9.40;;;4.80;99.90;;;;;;5093671;28;20196;-76
2022/12/28 09:46:36;;;;;;;14.57;9.30;;;4.90;99.90;;;;;;5093432;28;20350;-75
2022/12/28 09:49:06;;;;;;;12.27;9.20;;;5.10;99.90;;;;;;5093151;28;20291;-75
2022/12/28 09:51:37;;;;;;;12.00;9.47;;;5.20;99.90;;;;;;5093292;28;20196;-75
2022/12/28 09:54:04;;;;;;;12.87;9.23;;;5.30;99.90;;;;;;5093278;28;20200;-76
2022/12/28 09:56:35;;;;;;;11.93;8.90;;;5.50;99.90;;;;;;5092822;28;20222;-75
2022/12/28 09:59:03;;;;;;;10.37;8.93;;;5.70;99.90;;;;;;5093504;28;20258;-74
2022/12/28 10:01:30;;;;;;;13.73;9.13;;;5.90;99.90;;;;;;5093474;28;20197;-75
2022/12/28 10:04:00;;;;;;;11.03;8.57;;;6.00;99.90;;;;;;5093366;28;20192;-74
2022/12/28 10:06:31;;;;;;;9.07;7.63;;;6.20;99.90;;;;;;5093353;28;20230;-74
2022/12/28 10:09:01;;;;;;;10.73;7.43;;;6.20;99.90;;;;;;5093259;28;20583;-74
2022/12/28 10:11:31;;;;;;;9.47;7.40;;;6.20;99.90;;;;;;5093650;28;20250;-74
2022/12/28 10:14:02;;;;;;;10.83;7.53;;;6.30;99.90;;;;;;5093431;28;20721;-74
2022/12/28 10:16:31;;;;;;;9.60;7.23;;;6.40;99.90;;;;;;5093585;28;20230;-75
2022/12/28 10:18:59;;;;;;;9.03;6.90;;;6.40;99.90;;;;;;5090733;28;20200;-75
2022/12/28 10:21:30;;;;;;;7.77;6.97;;;6.60;99.90;;;;;;5093014;28;20199;-76
2022/12/28 10:23:58;;;;;;;9.23;7.23;;;7.00;99.90;;;;;;5092702;28;20556;-76
2022/12/28 10:26:25;;;;;;;8.87;7.50;;;7.30;99.90;;;;;;5092485;28;20227;-75
2022/12/28 10:28:55;;;;;;;8.40;7.40;;;7.30;99.90;;;;;;5092550;28;20277;-75
2022/12/28 10:31:32;;;;;;;8.87;6.83;;;7.70;99.90;;;;;;5092873;28;20200;-76
2022/12/28 10:33:59;;;;;;;11.27;7.10;;;8.00;99.90;;;;;;5092796;28;20882;-75
2022/12/28 10:36:31;;;;;;;8.40;6.57;;;7.90;99.90;;;;;;5092505;28;20223;-75
2022/12/28 10:39:00;;;;;;;8.07;6.43;;;7.50;99.90;;;;;;5109657;28;20192;-75
2022/12/28 10:41:35;;;;;;;8.47;7.13;;;7.30;99.90;;;;;;5109883;28;20267;-75
2022/12/28 10:44:14;;;;;;;9.73;7.40;;;7.20;99.90;;;;;;5092689;28;20241;-75
2022/12/28 10:46:50;;;;;;;8.40;6.60;;;7.30;99.90;;;;;;5092523;28;20242;-74
2022/12/28 10:49:17;;;;;;;9.07;6.63;;;7.40;99.90;;;;;;5092743;28;20228;-75
2022/12/28 10:52:02;;;;;;;10.20;7.00;;;7.50;99.90;;;;;;5092477;28;20185;-75
2022/12/28 10:54:33;;;;;;;7.27;6.47;;;7.80;99.90;;;;;;5092430;28;20200;-74
2022/12/28 10:57:00;;;;;;;8.00;6.60;;;7.60;99.90;;;;;;5092542;28;20196;-76
2022/12/28 10:59:28;;;;;;;8.27;6.33;;;7.80;99.90;;;;;;5092674;28;20594;-74
2022/12/28 11:02:13;;;;;;;8.67;6.47;;;9.10;99.90;;;;;;5092446;28;20241;-75
2022/12/28 11:04:52;;;;;;;8.73;6.40;;;9.40;99.90;;;;;;5092510;28;20287;-75
2022/12/28 11:07:28;;;;;;;9.17;6.13;;;12.10;99.90;;;;;;5092578;28;20215;-77
2022/12/28 11:10:14;;;;;;;7.20;5.80;;;12.50;99.90;;;;;;5096506;28;20320;-76
2022/12/28 11:12:44;;;;;;;7.53;6.60;;;14.10;99.90;;;;;;5096385;28;20196;-76
2022/12/28 11:15:14;;;;;;;6.90;5.68;;;14.40;99.90;;;;;;5097174;28;20203;-76
2022/12/28 11:17:41;;;;;;;6.28;5.55;;;13.00;99.90;;;;;;5096933;28;20199;-79
2022/12/28 11:20:16;;;;;;;7.27;5.47;;;12.30;99.90;;;;;;5096844;28;20249;-76
2022/12/28 11:22:43;;;;;;;9.30;5.97;;;12.20;99.90;;;;;;5097104;28;20261;-76
2022/12/28 11:25:15;;;;;;;5.40;4.83;;;11.60;99.90;;;;;;5096426;28;20204;-76
2022/12/28 11:27:42;;;;;;;5.33;4.83;;;12.20;99.90;;;;;;5096018;28;20646;-76
2022/12/28 11:30:14;;;;;;;7.03;5.27;;;13.00;99.90;;;;;;5095898;28;20219;-76
2022/12/28 11:32:46;;;;;;;5.78;4.97;;;14.00;99.90;;;;;;5096184;28;20272;-76
2022/12/28 11:35:17;;;;;;;6.28;5.18;;;13.70;99.90;;;;;;5096105;28;20253;-77
2022/12/28 11:37:49;;;;;;;6.37;5.10;;;12.30;99.90;;;;;;5095795;28;20193;-77
2022/12/28 11:40:49;;;;;;;7.37;5.07;;;11.50;99.90;;;;;;5095805;28;20246;-78
2022/12/28 11:43:39;;;;;;;8.10;5.80;;;10.80;99.90;;;;;;5095889;28;20199;-74
2022/12/28 11:46:27;;;;;;;7.20;6.03;;;10.20;99.90;;;;;;5095612;28;20263;-76
2022/12/28 11:48:58;;;;;;;6.50;5.10;;;10.50;99.90;;;;;;5095646;28;20617;-75
2022/12/28 11:51:26;;;;;;;6.63;5.60;;;11.70;99.90;;;;;;5095891;28;20644;-78
2022/12/28 11:53:58;;;;;;;6.43;5.30;;;12.30;99.90;;;;;;5095070;28;20265;-78
2022/12/28 11:56:27;;;;;;;7.30;5.45;;;14.40;99.90;;;;;;5088427;28;20267;-78
2022/12/28 11:59:23;;;;;;;6.78;5.20;;;16.30;99.90;;;;;;5095158;28;20258;-74
2022/12/28 12:01:52;;;;;;;5.50;4.80;;;14.60;99.90;;;;;;5095791;28;20204;-78
2022/12/28 12:04:45;;;;;;;4.82;4.38;;;14.90;99.90;;;;;;5095766;28;20249;-77
2022/12/28 12:07:24;;;;;;;7.43;4.60;;;15.30;99.90;;;;;;5095507;28;20192;-78
2022/12/28 12:10:36;;;;;;;4.32;3.92;;;17.50;99.90;;;;;;5095764;28;20228;-78
2022/12/28 12:13:43;;;;;;;4.85;4.35;;;16.50;99.90;;;;;;5103205;28;20192;-78
2022/12/28 12:16:20;;;;;;;6.20;4.32;;;14.80;99.90;;;;;;5116062;28;20202;-77
2022/12/28 12:18:50;;;;;;;4.65;4.13;;;16.50;99.90;;;;;;5115515;28;20200;-78
2022/12/28 12:21:30;;;;;;;5.57;4.05;;;15.40;99.90;;;;;;5115626;28;20540;-79
2022/12/28 12:24:03;;;;;;;5.70;4.20;;;15.10;99.90;;;;;;5115331;28;20196;-78
2022/12/28 12:26:36;;;;;;;6.30;4.47;;;12.80;99.90;;;;;;5114448;28;20286;-78
2022/12/28 12:29:11;;;;;;;4.65;4.03;;;12.50;99.90;;;;;;5095459;28;20216;-79
2022/12/28 12:31:43;;;;;;;5.63;3.93;;;13.00;99.90;;;;;;5094392;28;20196;-79
2022/12/28 12:34:15;;;;;;;4.83;4.23;;;12.60;99.90;;;;;;5095251;28;20409;-77
2022/12/28 12:37:19;;;;;;;7.30;4.43;;;12.40;99.90;;;;;;5094848;28;20567;-77
2022/12/28 12:39:59;;;;;;;4.53;3.87;;;12.20;99.90;;;;;;5069847;28;20670;-79
2022/12/28 12:42:35;;;;;;;6.73;3.83;;;12.90;99.90;;;;;;5094964;28;20652;-79
2022/12/28 12:45:14;;;;;;;5.80;3.37;;;13.50;99.90;;;;;;5095162;28;20611;-78
2022/12/28 12:48:10;;;;;;;4.07;3.67;;;12.40;99.90;;;;;;5093903;28;20269;-78
2022/12/28 12:50:52;;;;;;;5.30;3.73;;;11.50;99.90;;;;;;5094957;28;20281;-78
2022/12/28 12:53:33;;;;;;;6.97;4.17;;;11.10;99.90;;;;;;5094764;28;20215;-79
2022/12/28 12:56:07;;;;;;;4.97;3.83;;;11.40;99.90;;;;;;5092374;28;20200;-80
2022/12/28 12:58:46;;;;;;;5.40;3.63;;;10.70;99.90;;;;;;5091689;28;20192;-82
2022/12/28 13:01:26;;;;;;;4.87;3.87;;;10.50;99.90;;;;;;5094502;28;20242;-79
2022/12/28 13:03:54;;;;;;;6.37;4.27;;;10.30;99.90;;;;;;5094622;28;20262;-80
2022/12/28 13:06:24;;;;;;;10.33;5.47;;;10.30;99.90;;;;;;5094312;28;20213;-79
2022/12/28 13:08:54;;;;;;;15.93;10.53;;;9.90;99.90;;;;;;5094300;28;20204;-78
2022/12/28 13:11:22;;;;;;;3.53;2.90;;;9.80;99.90;;;;;;5094380;28;20199;-79
2022/12/28 13:13:51;;;;;;;8.23;5.23;;;9.80;99.90;;;;;;5094130;28;20196;-78
2022/12/28 13:16:21;;;;;;;4.10;2.80;;;10.10;99.90;;;;;;5093825;28;20265;-77
2022/12/28 13:18:56;;;;;;;3.90;2.20;;;9.90;99.90;;;;;;5090847;28;20197;-77